createdAt,value
2023-10-07T00:02:14.225Z,2.83
2023-10-07T00:05:18.264Z,2.43
2023-10-07T00:08:27.971Z,3.03
2023-10-07T00:11:31.493Z,3.08
2023-10-07T00:14:34.404Z,2.50
2023-10-07T00:17:40.779Z,3.47
2023-10-07T00:20:50.551Z,2.33
2023-10-07T00:23:56.699Z,2.30
2023-10-07T00:27:01.155Z,2.33
2023-10-07T00:30:14.009Z,2.63
2023-10-07T00:33:21.439Z,2.67
2023-10-07T00:36:33.371Z,2.93
2023-10-07T00:39:39.084Z,2.45
2023-10-07T00:42:46.419Z,2.50
2023-10-07T00:45:49.444Z,3.20
2023-10-07T00:48:58.193Z,3.03
2023-10-07T00:52:04.579Z,2.40
2023-10-07T00:55:09.351Z,3.00
2023-10-07T00:58:20.887Z,2.70
2023-10-07T01:01:23.582Z,2.72
2023-10-07T01:04:29.063Z,2.13
2023-10-07T01:07:32.926Z,2.60
2023-10-07T01:10:39.882Z,3.30
2023-10-07T01:13:51.646Z,2.53
2023-10-07T01:16:55.095Z,2.53
2023-10-07T01:19:58.389Z,2.30
2023-10-07T01:23:04.858Z,2.60
2023-10-07T01:26:17.805Z,2.40
2023-10-07T01:29:22.167Z,2.70
2023-10-07T01:32:24.835Z,2.83
2023-10-07T01:35:33.800Z,2.25
2023-10-07T01:38:42.122Z,2.43
2023-10-07T01:41:47.145Z,2.33
2023-10-07T01:44:55.810Z,2.17
2023-10-07T01:47:58.825Z,2.50
2023-10-07T01:51:03.410Z,2.85
2023-10-07T01:54:09.560Z,2.53
2023-10-07T01:57:12.584Z,2.25
2023-10-07T02:00:31.224Z,2.35
2023-10-07T02:03:34.425Z,2.30
2023-10-07T02:06:50.985Z,3.38
2023-10-07T02:09:55.966Z,2.83
2023-10-07T02:12:58.701Z,3.00
2023-10-07T02:16:06.728Z,2.88
2023-10-07T02:19:15.392Z,2.58
2023-10-07T02:22:29.725Z,3.22
2023-10-07T02:25:33.091Z,2.90
2023-10-07T02:28:35.849Z,2.97
2023-10-07T02:31:44.828Z,2.70
2023-10-07T02:34:53.874Z,3.00
2023-10-07T02:37:58.499Z,2.80
2023-10-07T02:41:08.320Z,2.03
2023-10-07T02:44:16.871Z,2.63
2023-10-07T02:47:20.422Z,2.60
2023-10-07T02:50:27.253Z,2.80
2023-10-07T02:53:36.558Z,3.05
2023-10-07T02:56:45.820Z,3.00
2023-10-07T03:00:01.685Z,3.60
2023-10-07T03:03:21.925Z,3.40
2023-10-07T03:06:29.491Z,3.05
2023-10-07T03:09:35.280Z,2.97
2023-10-07T03:12:39.216Z,3.20
2023-10-07T03:15:42.825Z,2.88
2023-10-07T03:18:56.635Z,3.00
2023-10-07T03:22:11.011Z,3.72
2023-10-07T03:25:18.490Z,3.10
2023-10-07T03:28:26.844Z,2.57
2023-10-07T03:31:41.623Z,2.60
2023-10-07T03:34:47.283Z,3.15
2023-10-07T03:37:55.516Z,2.90
2023-10-07T03:40:58.202Z,3.28
2023-10-07T03:44:00.870Z,2.87
2023-10-07T03:47:03.640Z,2.90
2023-10-07T03:50:26.220Z,3.13
2023-10-07T03:53:33.385Z,2.72
2023-10-07T03:56:36.086Z,3.15
2023-10-07T03:59:39.200Z,3.23
2023-10-07T04:02:46.199Z,3.65
2023-10-07T04:05:50.801Z,3.55
2023-10-07T04:08:57.920Z,3.45
2023-10-07T04:12:00.721Z,3.10
2023-10-07T04:15:03.967Z,3.47
2023-10-07T04:18:10.644Z,3.50
2023-10-07T04:21:13.429Z,3.47
2023-10-07T04:24:16.726Z,3.92
2023-10-07T04:27:22.998Z,3.47
2023-10-07T04:30:33.204Z,3.47
2023-10-07T04:33:41.281Z,3.83
2023-10-07T04:37:02.258Z,3.28
2023-10-07T04:40:07.972Z,3.20
2023-10-07T04:43:10.568Z,3.65
2023-10-07T04:46:33.473Z,3.90
2023-10-07T04:49:43.439Z,3.97
2023-10-07T04:52:52.374Z,3.30
2023-10-07T04:56:03.079Z,3.83
2023-10-07T04:59:07.642Z,3.20
2023-10-07T05:02:11.944Z,3.10
2023-10-07T05:05:14.835Z,4.07
2023-10-07T05:08:20.864Z,3.35
2023-10-07T05:11:27.660Z,3.70
2023-10-07T05:14:30.357Z,3.78
2023-10-07T05:17:37.769Z,3.70
2023-10-07T05:20:43.337Z,4.25
2023-10-07T05:23:46.120Z,4.10
2023-10-07T05:26:49.047Z,3.70
2023-10-07T05:29:51.762Z,4.18
2023-10-07T05:32:54.433Z,3.80
2023-10-07T05:36:01.722Z,4.10
2023-10-07T05:39:04.429Z,3.92
2023-10-07T05:42:07.523Z,3.58
2023-10-07T05:45:10.737Z,3.38
2023-10-07T05:48:13.376Z,3.83
2023-10-07T05:51:17.728Z,4.40
2023-10-07T05:54:20.420Z,3.97
2023-10-07T05:57:23.057Z,3.78
2023-10-07T06:00:26.687Z,4.25
2023-10-07T06:03:30.125Z,3.63
2023-10-07T06:06:32.834Z,5.45
2023-10-07T06:09:38.475Z,3.25
2023-10-07T06:12:41.748Z,3.58
2023-10-07T06:15:44.725Z,5.00
2023-10-07T06:18:47.408Z,4.80
2023-10-07T06:21:53.218Z,4.18
2023-10-07T06:24:57.239Z,4.53
2023-10-07T06:28:01.178Z,4.43
2023-10-07T06:31:12.244Z,4.10
2023-10-07T06:34:15.875Z,4.13
2023-10-07T06:37:26.821Z,4.20
2023-10-07T06:40:33.387Z,3.92
2023-10-07T06:43:36.140Z,4.05
2023-10-07T06:46:42.540Z,4.03
2023-10-07T06:49:45.892Z,3.77
2023-10-07T06:52:50.817Z,4.25
2023-10-07T06:55:54.465Z,3.25
2023-10-07T06:59:01.283Z,2.53
2023-10-07T07:02:07.944Z,2.50
2023-10-07T07:05:17.840Z,2.30
2023-10-07T07:08:24.434Z,2.13
2023-10-07T07:11:27.137Z,2.75
2023-10-07T07:14:34.892Z,2.72
2023-10-07T07:17:37.793Z,2.50
2023-10-07T07:20:50.430Z,2.40
2023-10-07T07:23:53.710Z,2.40
2023-10-07T07:26:58.126Z,2.60
2023-10-07T07:30:04.721Z,2.35
2023-10-07T07:33:09.647Z,1.98
2023-10-07T07:36:31.429Z,2.20
2023-10-07T07:39:37.319Z,2.20
2023-10-07T07:42:40.369Z,2.08
2023-10-07T07:45:42.985Z,2.00
2023-10-07T07:48:46.073Z,2.58
2023-10-07T07:51:54.802Z,2.47
2023-10-07T07:54:57.416Z,2.00
2023-10-07T07:58:00.361Z,2.00
2023-10-07T08:01:06.673Z,2.00
2023-10-07T08:04:18.585Z,2.20
2023-10-07T08:07:21.361Z,2.07
2023-10-07T08:10:24.327Z,1.90
2023-10-07T08:13:29.163Z,2.10
2023-10-07T08:16:31.885Z,1.92
2023-10-07T08:19:34.598Z,2.22
2023-10-07T08:22:46.974Z,1.57
2023-10-07T08:25:50.405Z,2.15
2023-10-07T08:28:59.182Z,1.50
2023-10-07T08:32:17.165Z,2.28
2023-10-07T08:35:19.961Z,2.53
2023-10-07T08:38:39.232Z,2.20
2023-10-07T08:41:42.191Z,2.05
2023-10-07T08:44:58.898Z,2.58
2023-10-07T08:48:18.087Z,2.15
2023-10-07T08:51:26.761Z,2.25
2023-10-07T08:54:39.056Z,2.20
2023-10-07T08:57:44.984Z,1.95
2023-10-07T09:00:51.761Z,2.15
2023-10-07T09:03:58.230Z,2.25
2023-10-07T09:07:02.039Z,2.05
2023-10-07T09:10:16.463Z,1.70
2023-10-07T09:13:29.842Z,2.22
2023-10-07T09:16:34.323Z,2.35
2023-10-07T09:19:37.992Z,2.05
2023-10-07T09:22:46.719Z,2.00
2023-10-07T09:25:56.530Z,2.10
2023-10-07T09:29:23.520Z,2.45
2023-10-07T09:32:33.641Z,1.90
2023-10-07T09:35:37.205Z,2.33
2023-10-07T09:38:44.929Z,2.75
2023-10-07T09:42:01.698Z,1.80
2023-10-07T09:45:08.369Z,2.00
2023-10-07T09:48:11.063Z,2.90
2023-10-07T09:51:24.280Z,1.90
2023-10-07T09:55:08.182Z,3.58
2023-10-07T09:58:38.056Z,2.00
2023-10-07T10:02:25.760Z,2.55
2023-10-07T10:05:30.112Z,2.40
2023-10-07T10:08:49.085Z,2.10
2023-10-07T10:12:15.574Z,2.50
2023-10-07T10:15:21.758Z,2.63
2023-10-07T10:18:37.138Z,2.47
2023-10-07T10:21:39.767Z,2.60
2023-10-07T10:24:43.971Z,2.40
2023-10-07T10:27:48.756Z,2.33
2023-10-07T10:30:55.096Z,2.37
2023-10-07T10:33:59.983Z,2.10
2023-10-07T10:37:07.197Z,2.13
2023-10-07T10:40:16.218Z,2.03
2023-10-07T10:43:25.640Z,2.40
2023-10-07T10:46:30.256Z,2.33
2023-10-07T10:49:33.833Z,2.08
2023-10-07T10:52:40.207Z,2.50
2023-10-07T10:55:44.141Z,1.98
2023-10-07T10:58:55.056Z,2.22
2023-10-07T11:01:58.216Z,2.67
2023-10-07T11:05:01.001Z,2.42
2023-10-07T11:08:05.911Z,2.40
2023-10-07T11:11:12.291Z,2.28
2023-10-07T11:14:21.881Z,1.90
2023-10-07T11:17:25.324Z,2.30
2023-10-07T11:20:34.550Z,1.90
2023-10-07T11:23:56.206Z,2.22
2023-10-07T11:27:01.812Z,2.08
2023-10-07T11:30:04.844Z,2.42
2023-10-07T11:33:18.403Z,2.27
2023-10-07T11:36:21.527Z,1.90
2023-10-07T11:39:24.213Z,2.30
2023-10-07T11:42:27.970Z,2.28
2023-10-07T11:45:30.728Z,2.45
2023-10-07T11:48:34.029Z,2.17
2023-10-07T11:51:36.683Z,2.30
2023-10-07T11:54:39.390Z,1.85
2023-10-07T11:57:42.038Z,2.20
2023-10-07T12:00:45.219Z,2.20
2023-10-07T12:03:48.261Z,1.80
2023-10-07T12:06:52.349Z,1.80
2023-10-07T12:09:55.403Z,2.15
2023-10-07T12:12:59.463Z,2.17
2023-10-07T12:16:05.869Z,2.25
2023-10-07T12:19:09.074Z,2.33
2023-10-07T12:22:14.643Z,2.38
2023-10-07T12:25:18.325Z,2.50
2023-10-07T12:28:22.053Z,1.88
2023-10-07T12:31:24.770Z,2.15
2023-10-07T12:34:28.022Z,2.23
2023-10-07T12:37:32.527Z,2.38
2023-10-07T12:40:35.164Z,2.47
2023-10-07T12:43:39.551Z,2.25
2023-10-07T12:46:44.812Z,1.92
2023-10-07T12:49:47.440Z,2.00
2023-10-07T12:52:52.428Z,2.22
2023-10-07T12:55:56.173Z,2.30
2023-10-07T12:58:58.920Z,2.00
2023-10-07T13:02:04.545Z,1.95
2023-10-07T13:05:10.658Z,2.37
2023-10-07T13:08:14.441Z,2.40
2023-10-07T13:11:17.352Z,2.15
2023-10-07T13:14:20.481Z,1.92
2023-10-07T13:17:23.191Z,2.33
2023-10-07T13:20:27.893Z,1.80
2023-10-07T13:23:30.856Z,2.38
2023-10-07T13:26:33.530Z,2.10
2023-10-07T13:29:37.372Z,2.42
2023-10-07T13:32:45.421Z,1.85
2023-10-07T13:35:48.220Z,2.13
2023-10-07T13:38:52.234Z,2.03
2023-10-07T13:41:54.960Z,2.00
2023-10-07T13:44:57.856Z,2.22
2023-10-07T13:48:04.819Z,2.20
2023-10-07T13:51:07.645Z,1.90
2023-10-07T13:54:24.072Z,2.08
2023-10-07T13:57:29.018Z,1.83
2023-10-07T14:00:36.733Z,1.75
2023-10-07T14:03:41.052Z,1.92
2023-10-07T14:06:43.930Z,1.83
2023-10-07T14:09:50.567Z,1.60
2023-10-07T14:12:53.327Z,1.60
2023-10-07T14:16:10.292Z,1.88
2023-10-07T14:19:23.737Z,1.85
2023-10-07T14:22:26.414Z,1.97
2023-10-07T14:25:29.145Z,2.35
2023-10-07T14:28:32.123Z,2.05
2023-10-07T14:31:36.014Z,1.85
2023-10-07T14:34:38.652Z,2.00
2023-10-07T14:37:41.361Z,2.33
2023-10-07T14:40:45.629Z,1.80
2023-10-07T14:43:48.445Z,2.30
2023-10-07T14:46:52.207Z,2.17
2023-10-07T14:49:55.786Z,2.15
2023-10-07T14:52:59.411Z,3.17
2023-10-07T14:56:13.332Z,2.70
2023-10-07T14:59:16.633Z,2.17
2023-10-07T15:02:19.926Z,1.95
2023-10-07T15:05:26.619Z,1.85
2023-10-07T15:08:31.484Z,2.40
2023-10-07T15:11:34.993Z,2.42
2023-10-07T15:14:37.682Z,2.10
2023-10-07T15:17:40.537Z,2.03
2023-10-07T15:20:44.697Z,2.28
2023-10-07T15:23:47.389Z,2.40
2023-10-07T15:26:50.036Z,2.13
2023-10-07T15:29:52.675Z,2.60
2023-10-07T15:32:55.331Z,2.80
2023-10-07T15:35:58.331Z,2.33
2023-10-07T15:39:03.824Z,2.27
2023-10-07T15:42:10.148Z,2.38
2023-10-07T15:45:15.548Z,2.88
2023-10-07T15:48:19.426Z,2.20
2023-10-07T15:51:22.726Z,2.40
2023-10-07T15:54:25.943Z,3.00
2023-10-07T15:57:29.284Z,3.15
2023-10-07T16:00:35.237Z,2.50
2023-10-07T16:03:39.399Z,2.67
2023-10-07T16:06:44.310Z,2.80
2023-10-07T16:09:47.172Z,3.17
2023-10-07T16:12:49.791Z,2.20
2023-10-07T16:15:56.407Z,2.38
2023-10-07T16:19:00.067Z,3.72
2023-10-07T16:22:03.127Z,2.55
2023-10-07T16:25:09.621Z,2.03
2023-10-07T16:28:12.550Z,2.17
2023-10-07T16:31:15.961Z,2.05
2023-10-07T16:34:18.634Z,2.42
2023-10-07T16:37:21.291Z,2.55
2023-10-07T16:40:23.932Z,2.33
2023-10-07T16:43:26.595Z,2.45
2023-10-07T16:46:30.966Z,2.08
2023-10-07T16:49:33.859Z,2.28
2023-10-07T16:52:39.221Z,2.28
2023-10-07T16:55:41.829Z,2.10
2023-10-07T16:58:44.671Z,2.25
2023-10-07T17:01:47.435Z,2.22
2023-10-07T17:04:51.231Z,2.30
2023-10-07T17:07:56.228Z,2.03
2023-10-07T17:10:59.046Z,2.27
2023-10-07T17:14:01.777Z,1.98
2023-10-07T17:17:04.583Z,2.40
2023-10-07T17:20:08.834Z,2.03
2023-10-07T17:23:13.131Z,1.67
2023-10-07T17:26:16.070Z,2.37
2023-10-07T17:29:18.813Z,1.70
2023-10-07T17:32:22.289Z,2.10
2023-10-07T17:35:25.075Z,1.92
2023-10-07T17:38:28.078Z,1.83
2023-10-07T17:41:32.142Z,1.77
2023-10-07T17:44:35.132Z,2.83
2023-10-07T17:47:39.755Z,2.55
2023-10-07T17:50:42.602Z,2.40
2023-10-07T17:53:45.277Z,2.20
2023-10-07T17:56:47.880Z,1.60
2023-10-07T17:59:50.712Z,1.63
2023-10-07T18:02:55.218Z,1.83
2023-10-07T18:06:06.310Z,1.90
2023-10-07T18:09:12.215Z,2.08
2023-10-07T18:12:15.863Z,2.00
2023-10-07T18:15:19.426Z,2.10
2023-10-07T18:18:22.136Z,1.73
2023-10-07T18:21:25.454Z,1.85
2023-10-07T18:24:28.232Z,1.55
2023-10-07T18:27:31.194Z,1.80
2023-10-07T18:30:34.408Z,1.75
2023-10-07T18:33:37.621Z,1.90
2023-10-07T18:36:40.550Z,1.90
2023-10-07T18:39:43.308Z,2.10
2023-10-07T18:42:46.331Z,2.00
2023-10-07T18:45:53.850Z,1.55
2023-10-07T18:48:56.788Z,1.70
2023-10-07T18:51:59.445Z,1.90
2023-10-07T18:55:02.412Z,2.40
2023-10-07T18:58:09.583Z,2.20
2023-10-07T19:01:15.346Z,1.90
2023-10-07T19:04:18.230Z,2.22
2023-10-07T19:07:21.173Z,2.10
2023-10-07T19:10:24.201Z,2.58
2023-10-07T19:13:27.066Z,2.30
2023-10-07T19:16:30.429Z,2.25
2023-10-07T19:19:33.466Z,2.05
2023-10-07T19:22:42.307Z,1.95
2023-10-07T19:25:48.424Z,2.10
2023-10-07T19:28:51.577Z,2.43
2023-10-07T19:31:56.008Z,2.00
2023-10-07T19:34:58.690Z,2.10
2023-10-07T19:38:01.611Z,2.30
2023-10-07T19:41:05.695Z,2.30
2023-10-07T19:44:08.564Z,2.50
2023-10-07T19:47:11.663Z,2.45
2023-10-07T19:50:16.213Z,2.70
2023-10-07T19:53:19.252Z,2.75
2023-10-07T19:56:23.208Z,2.55
2023-10-07T19:59:26.026Z,2.80
2023-10-07T20:02:29.062Z,2.67
2023-10-07T20:05:31.896Z,2.83
2023-10-07T20:08:34.696Z,2.85
2023-10-07T20:11:37.563Z,2.90
2023-10-07T20:14:40.589Z,2.90
2023-10-07T20:17:43.992Z,2.95
2023-10-07T20:20:57.089Z,3.33
2023-10-07T20:23:59.676Z,3.15
2023-10-07T20:27:02.374Z,2.90
2023-10-07T20:30:08.605Z,3.53
2023-10-07T20:33:11.254Z,3.45
2023-10-07T20:36:15.234Z,2.92
2023-10-07T20:39:17.872Z,3.30
2023-10-07T20:42:22.482Z,3.28
2023-10-07T20:45:25.127Z,2.80
2023-10-07T20:48:29.062Z,2.38
2023-10-07T20:51:31.751Z,3.20
2023-10-07T20:54:34.770Z,2.85
2023-10-07T20:57:37.901Z,3.10
2023-10-07T21:00:42.713Z,2.87
2023-10-07T21:03:49.601Z,3.10
2023-10-07T21:06:52.387Z,3.00
2023-10-07T21:09:55.016Z,2.95
2023-10-07T21:12:57.656Z,3.20
2023-10-07T21:16:00.358Z,2.97
2023-10-07T21:19:03.249Z,3.58
2023-10-07T21:22:06.064Z,2.88
2023-10-07T21:25:09.206Z,2.75
2023-10-07T21:28:12.632Z,3.63
2023-10-07T21:31:15.780Z,2.77
2023-10-07T21:34:18.474Z,3.03
2023-10-07T21:37:21.812Z,3.17
2023-10-07T21:40:24.503Z,3.03
2023-10-07T21:43:27.966Z,3.00
2023-10-07T21:46:30.627Z,3.20
2023-10-07T21:49:33.780Z,2.85
2023-10-07T21:52:36.419Z,3.05
2023-10-07T21:55:39.330Z,2.65
2023-10-07T21:58:42.100Z,3.08
2023-10-07T22:01:44.718Z,2.93
2023-10-07T22:04:49.617Z,2.70
2023-10-07T22:07:52.612Z,3.10
2023-10-07T22:10:55.321Z,3.38
2023-10-07T22:14:00.780Z,3.50
2023-10-07T22:17:06.755Z,2.40
2023-10-07T22:20:17.416Z,3.33
2023-10-07T22:23:22.857Z,3.50
2023-10-07T22:26:25.746Z,3.45
2023-10-07T22:29:28.961Z,3.78
2023-10-07T22:32:34.798Z,3.87
2023-10-07T22:35:42.169Z,3.13
2023-10-07T22:38:49.561Z,3.28
2023-10-07T22:41:57.786Z,3.55
2023-10-07T22:45:00.504Z,3.50
2023-10-07T22:48:07.720Z,2.90
2023-10-07T22:51:10.601Z,3.17
2023-10-07T22:54:19.075Z,3.30
2023-10-07T22:57:22.905Z,3.20
2023-10-07T23:00:25.747Z,3.20
2023-10-07T23:03:39.950Z,3.03
2023-10-07T23:07:13.640Z,2.97
2023-10-07T23:10:26.893Z,3.50
2023-10-07T23:13:34.037Z,2.90
2023-10-07T23:16:41.187Z,3.13
2023-10-07T23:19:43.895Z,3.20
2023-10-07T23:22:50.049Z,3.78
2023-10-07T23:25:59.004Z,3.72
2023-10-07T23:29:03.613Z,3.03
2023-10-07T23:32:15.922Z,4.10
2023-10-07T23:35:21.748Z,3.47
2023-10-07T23:38:26.279Z,3.25
2023-10-07T23:41:29.108Z,3.38
2023-10-07T23:44:33.751Z,2.88
2023-10-07T23:47:36.759Z,2.90
2023-10-07T23:50:44.429Z,2.77
2023-10-07T23:53:51.043Z,2.95
2023-10-07T23:56:53.959Z,3.20
2023-10-07T23:59:58.557Z,3.00
